Time;durP1;ratioP1;P1;durP2;ratioP2;P2;SDS_P1;SDS_P2;PMS_P1;PMS_P2;Temp;Humidity;BMP_temperature;BMP_pressure;BME280_temperature;BME280_humidity;BME280_pressure;Samples;Min_cycle;Max_cycle;Signal;HPM_P1;HPM_P2
2023/03/05 00:01:25;;;;;;;8.18;5.07;;;3.90;99.90;;;;;;5111855;28;20050;-65
2023/03/05 00:03:53;;;;;;;12.65;5.35;;;4.00;99.90;;;;;;5092798;28;20046;-65
2023/03/05 00:06:20;;;;;;;11.18;6.75;;;4.00;99.90;;;;;;5085677;28;20043;-65
2023/03/05 00:08:47;;;;;;;10.07;5.00;;;4.00;99.90;;;;;;5106321;28;20061;-65
2023/03/05 00:11:13;;;;;;;10.70;5.63;;;4.00;99.90;;;;;;5112391;28;20052;-65
2023/03/05 00:13:39;;;;;;;6.85;2.33;;;4.00;99.90;;;;;;5093112;28;20033;-65
2023/03/05 00:16:08;;;;;;;7.80;2.65;;;4.00;99.90;;;;;;5109668;28;20588;-65
2023/03/05 00:18:33;;;;;;;9.07;1.95;;;4.00;99.90;;;;;;5104783;28;20385;-65
2023/03/05 00:20:59;;;;;;;10.32;2.33;;;4.00;99.90;;;;;;5101035;28;20035;-65
2023/03/05 00:23:25;;;;;;;8.25;1.77;;;4.00;99.90;;;;;;5105220;28;20138;-65
2023/03/05 00:25:50;;;;;;;5.97;2.63;;;4.00;99.90;;;;;;5107041;28;20477;-65
2023/03/05 00:28:16;;;;;;;12.55;5.13;;;4.00;99.90;;;;;;5102454;28;20031;-65
2023/03/05 00:30:42;;;;;;;5.88;2.20;;;4.00;99.90;;;;;;5109681;28;20428;-65
2023/03/05 00:33:10;;;;;;;4.50;2.22;;;4.00;99.90;;;;;;5107108;28;20028;-65
2023/03/05 00:35:44;;;;;;;4.53;1.88;;;4.00;99.90;;;;;;5092588;28;20040;-65
2023/03/05 00:38:11;;;;;;;7.78;3.05;;;4.00;99.90;;;;;;5104812;28;20555;-65
2023/03/05 00:40:38;;;;;;;8.52;5.07;;;4.00;99.90;;;;;;5094774;28;20089;-65
2023/03/05 00:43:04;;;;;;;13.32;6.28;;;4.00;99.90;;;;;;5098518;28;20106;-65
2023/03/05 00:45:30;;;;;;;8.40;1.77;;;4.00;99.90;;;;;;5111533;28;20039;-65
2023/03/05 00:47:56;;;;;;;5.50;1.85;;;4.00;99.90;;;;;;5100405;28;20043;-65
2023/03/05 00:50:22;;;;;;;5.85;1.17;;;4.00;99.90;;;;;;5105046;28;20046;-65
2023/03/05 00:52:47;;;;;;;6.55;1.92;;;4.00;99.90;;;;;;5109080;28;20036;-65
2023/03/05 00:55:13;;;;;;;7.22;2.78;;;3.90;99.90;;;;;;5111515;28;20431;-64
2023/03/05 00:57:39;;;;;;;7.70;1.45;;;3.90;99.90;;;;;;5105250;28;20036;-64
2023/03/05 01:00:05;;;;;;;6.55;3.42;;;3.90;99.90;;;;;;5101816;28;20032;-64
2023/03/05 01:02:31;;;;;;;6.38;1.92;;;3.90;99.90;;;;;;5105522;28;20043;-65
2023/03/05 01:04:56;;;;;;;5.85;1.70;;;3.90;99.90;;;;;;5080414;28;20036;-64
2023/03/05 01:07:22;;;;;;;6.47;1.50;;;3.90;99.90;;;;;;5083189;28;20660;-64
2023/03/05 01:09:47;;;;;;;4.07;1.38;;;3.90;99.90;;;;;;5086082;28;20040;-64
2023/03/05 01:12:13;;;;;;;10.60;3.25;;;3.90;99.90;;;;;;5106709;28;20394;-64
2023/03/05 01:14:39;;;;;;;5.35;1.40;;;3.80;99.90;;;;;;5107112;28;20046;-63
2023/03/05 01:17:05;;;;;;;3.72;1.63;;;3.80;99.90;;;;;;5103197;28;20639;-64
2023/03/05 01:19:30;;;;;;;4.85;1.50;;;3.80;99.90;;;;;;5095210;28;20040;-63
2023/03/05 01:21:56;;;;;;;4.10;1.77;;;3.80;99.90;;;;;;5098445;28;20036;-63
2023/03/05 01:24:21;;;;;;;4.60;1.35;;;3.80;99.90;;;;;;5097339;28;20059;-64
2023/03/05 01:26:48;;;;;;;4.88;1.55;;;3.80;99.90;;;;;;5096444;28;20038;-63
2023/03/05 01:29:14;;;;;;;4.07;1.30;;;3.80;99.90;;;;;;5103933;28;20104;-64
2023/03/05 01:31:40;;;;;;;5.38;1.65;;;3.80;99.90;;;;;;5107875;28;20028;-63
2023/03/05 01:34:05;;;;;;;7.28;1.77;;;3.80;99.90;;;;;;5101941;28;20568;-63
2023/03/05 01:36:31;;;;;;;7.10;1.50;;;3.80;99.90;;;;;;5101622;28;20115;-64
2023/03/05 01:38:57;;;;;;;5.38;1.70;;;3.80;99.90;;;;;;5103173;28;20062;-64
2023/03/05 01:41:22;;;;;;;9.10;2.00;;;3.80;99.90;;;;;;5081037;28;20098;-64
2023/03/05 01:43:48;;;;;;;242.45;90.07;;;3.80;99.90;;;;;;5102972;28;20048;-64
2023/03/05 01:46:49;;;;;;;665.58;302.65;;;3.80;99.90;;;;;;5090999;28;20040;-64
2023/03/05 01:49:34;;;;;;;53.97;23.45;;;3.80;99.90;;;;;;5007248;28;20554;-64
2023/03/05 01:52:16;;;;;;;14.60;5.30;;;3.80;99.90;;;;;;5093554;28;20060;-64
2023/03/05 01:54:48;;;;;;;4.72;1.95;;;3.80;99.90;;;;;;5100735;28;20042;-64
2023/03/05 01:57:39;;;;;;;3.25;1.73;;;3.80;99.90;;;;;;5088892;28;20046;-64
2023/03/05 02:00:09;;;;;;;6.35;2.10;;;3.80;99.90;;;;;;5089440;28;20085;-64
2023/03/05 02:02:35;;;;;;;8.18;2.05;;;3.70;99.90;;;;;;5111388;28;20043;-64
2023/03/05 02:05:12;;;;;;;6.28;2.33;;;3.70;99.90;;;;;;5104214;28;20058;-64
2023/03/05 02:07:41;;;;;;;6.85;2.15;;;3.70;99.90;;;;;;5108401;28;20043;-64
2023/03/05 02:10:22;;;;;;;4.90;1.88;;;3.70;99.90;;;;;;5102363;28;20105;-64
2023/03/05 02:12:48;;;;;;;6.57;2.00;;;3.70;99.90;;;;;;5100559;28;20035;-64
2023/03/05 02:15:15;;;;;;;4.13;1.73;;;3.70;99.90;;;;;;5104165;28;20035;-64
2023/03/05 02:17:41;;;;;;;4.55;1.90;;;3.60;99.90;;;;;;5109305;28;20036;-64
2023/03/05 02:20:13;;;;;;;7.50;2.08;;;3.70;99.90;;;;;;5106954;28;20429;-64
2023/03/05 02:22:39;;;;;;;11.23;2.53;;;3.70;99.90;;;;;;5110464;28;20118;-64
2023/03/05 02:25:19;;;;;;;8.77;2.47;;;3.70;99.90;;;;;;5103327;28;20123;-64
2023/03/05 02:27:56;;;;;;;7.18;1.88;;;3.60;99.90;;;;;;5094795;28;20036;-64
2023/03/05 02:30:23;;;;;;;9.57;2.45;;;3.60;99.90;;;;;;5106940;28;20056;-64
2023/03/05 02:32:48;;;;;;;12.30;2.33;;;3.60;99.90;;;;;;5102497;28;20050;-64
2023/03/05 02:35:14;;;;;;;7.55;2.00;;;3.50;99.90;;;;;;5100662;28;20044;-64
2023/03/05 02:37:40;;;;;;;7.75;2.10;;;3.50;99.90;;;;;;5106299;28;20088;-64
2023/03/05 02:40:06;;;;;;;7.10;2.00;;;3.50;99.90;;;;;;5094051;28;20039;-64
2023/03/05 02:42:32;;;;;;;9.88;2.10;;;3.50;99.90;;;;;;5085329;28;20529;-64
2023/03/05 02:44:59;;;;;;;9.48;2.33;;;3.50;99.90;;;;;;5099053;28;20062;-64
2023/03/05 02:47:26;;;;;;;8.43;2.00;;;3.50;99.90;;;;;;5107635;28;20039;-64
2023/03/05 02:49:52;;;;;;;7.05;1.60;;;3.40;99.90;;;;;;5106245;28;20450;-64
2023/03/05 02:52:18;;;;;;;6.13;1.80;;;3.40;99.90;;;;;;5109346;28;20047;-64
2023/03/05 02:54:43;;;;;;;6.72;2.05;;;3.40;99.90;;;;;;5107260;28;20039;-64
2023/03/05 02:57:09;;;;;;;5.95;2.25;;;3.40;99.90;;;;;;5107938;28;20039;-64
2023/03/05 02:59:34;;;;;;;5.90;2.63;;;3.40;99.90;;;;;;5111412;28;20104;-64
2023/03/05 03:02:00;;;;;;;5.00;1.60;;;3.30;99.90;;;;;;5104728;28;20524;-64
2023/03/05 03:04:26;;;;;;;7.55;1.98;;;3.30;99.90;;;;;;5110443;28;20042;-64
2023/03/05 03:06:51;;;;;;;5.65;2.20;;;3.30;99.90;;;;;;5103789;28;20040;-64
2023/03/05 03:09:17;;;;;;;4.90;2.10;;;3.30;99.90;;;;;;5098775;28;20077;-64
2023/03/05 03:11:43;;;;;;;7.75;2.00;;;3.30;99.90;;;;;;5102138;28;20047;-64
2023/03/05 03:14:08;;;;;;;5.88;2.13;;;3.30;99.90;;;;;;5096421;28;20056;-64
2023/03/05 03:16:34;;;;;;;6.00;2.40;;;3.30;99.90;;;;;;5104503;28;20032;-64
2023/03/05 03:19:00;;;;;;;8.05;2.30;;;3.30;99.90;;;;;;5082946;28;20393;-64
2023/03/05 03:21:25;;;;;;;9.48;2.47;;;3.30;99.90;;;;;;5105147;28;20544;-64
2023/03/05 03:23:52;;;;;;;6.60;2.10;;;3.30;99.90;;;;;;5103000;28;20040;-64
2023/03/05 03:26:18;;;;;;;5.28;2.03;;;3.30;99.90;;;;;;5081837;28;20400;-64
2023/03/05 03:28:44;;;;;;;7.07;2.20;;;3.30;99.90;;;;;;5105461;28;20394;-64
2023/03/05 03:31:10;;;;;;;8.07;2.25;;;3.30;99.90;;;;;;5106043;28;20044;-64
2023/03/05 03:33:36;;;;;;;4.13;1.55;;;3.20;99.90;;;;;;5100217;28;20043;-64
2023/03/05 03:36:03;;;;;;;6.47;2.15;;;3.20;99.90;;;;;;5099845;28;20390;-64
2023/03/05 03:38:28;;;;;;;4.78;2.35;;;3.30;99.90;;;;;;5092095;28;20505;-64
2023/03/05 03:40:54;;;;;;;6.28;2.40;;;3.20;99.90;;;;;;5105218;28;20074;-64
2023/03/05 03:43:20;;;;;;;6.72;2.20;;;3.30;99.90;;;;;;5103881;28;20035;-64
2023/03/05 03:45:45;;;;;;;7.70;2.05;;;3.30;99.90;;;;;;5110159;28;20067;-64
2023/03/05 03:48:11;;;;;;;9.57;2.30;;;3.30;99.90;;;;;;5112822;28;20027;-64
2023/03/05 03:50:43;;;;;;;5.70;2.05;;;3.30;99.90;;;;;;5084964;28;20032;-64
2023/03/05 03:53:13;;;;;;;8.20;1.98;;;3.30;99.90;;;;;;5102222;28;20036;-64
2023/03/05 03:55:41;;;;;;;5.72;2.00;;;3.30;99.90;;;;;;5102822;28;21875;-63
2023/03/05 03:58:07;;;;;;;5.68;1.98;;;3.30;99.90;;;;;;5109651;28;20037;-64
2023/03/05 04:00:32;;;;;;;6.88;2.25;;;3.40;99.90;;;;;;5105340;28;20404;-63
2023/03/05 04:02:58;;;;;;;8.05;2.35;;;3.40;99.90;;;;;;5088931;28;20046;-63
2023/03/05 04:05:24;;;;;;;3.83;1.80;;;3.40;99.90;;;;;;5080746;28;20040;-63
2023/03/05 04:07:50;;;;;;;6.20;2.47;;;3.40;99.90;;;;;;5096255;28;20092;-63
2023/03/05 04:10:16;;;;;;;7.63;1.92;;;3.40;99.90;;;;;;5107276;28;20114;-64
2023/03/05 04:12:42;;;;;;;8.63;2.15;;;3.40;99.90;;;;;;5110710;28;20065;-63
2023/03/05 04:15:09;;;;;;;5.32;1.63;;;3.40;99.90;;;;;;5111325;28;20024;-64
2023/03/05 04:17:35;;;;;;;7.32;1.85;;;3.40;99.90;;;;;;5109958;28;20511;-63
2023/03/05 04:20:00;;;;;;;5.03;2.00;;;3.40;99.90;;;;;;5086273;28;20028;-64
2023/03/05 04:22:26;;;;;;;6.00;1.77;;;3.40;99.90;;;;;;5093259;28;20035;-64
2023/03/05 04:24:52;;;;;;;4.20;1.50;;;3.40;99.90;;;;;;5107513;28;20128;-63
2023/03/05 04:27:17;;;;;;;5.75;1.92;;;3.40;99.90;;;;;;5109127;28;20058;-63
2023/03/05 04:29:43;;;;;;;2.72;1.50;;;3.40;99.90;;;;;;5103348;28;20497;-63
2023/03/05 04:32:09;;;;;;;4.38;1.77;;;3.40;99.90;;;;;;5112635;28;20039;-64
2023/03/05 04:34:36;;;;;;;3.38;1.35;;;3.40;99.90;;;;;;5111134;28;20032;-63
2023/03/05 04:37:02;;;;;;;3.53;1.33;;;3.40;99.90;;;;;;5106268;28;20028;-64
2023/03/05 04:39:28;;;;;;;3.22;1.30;;;3.40;99.90;;;;;;5117536;22;20040;-61
2023/03/05 04:41:53;;;;;;;6.43;1.58;;;3.40;99.90;;;;;;5066045;28;20126;-61
2023/03/05 04:44:22;;;;;;;3.20;1.35;;;3.40;99.90;;;;;;5062908;28;20556;-61
2023/03/05 04:46:48;;;;;;;2.75;1.20;;;3.40;99.90;;;;;;5072003;28;20040;-61
2023/03/05 04:49:14;;;;;;;3.50;1.33;;;3.40;99.90;;;;;;5051080;28;20445;-61
2023/03/05 04:51:40;;;;;;;4.93;1.48;;;3.40;99.90;;;;;;5079863;28;20086;-61
2023/03/05 04:54:06;;;;;;;3.15;1.40;;;3.40;99.90;;;;;;5090306;28;20043;-61
2023/03/05 04:56:31;;;;;;;2.67;1.13;;;3.40;99.90;;;;;;5078602;28;20390;-61
2023/03/05 04:58:58;;;;;;;2.75;1.17;;;3.30;99.90;;;;;;5079321;28;20115;-61
2023/03/05 05:01:23;;;;;;;4.10;1.33;;;3.40;99.90;;;;;;5079236;28;20047;-61
2023/03/05 05:03:49;;;;;;;3.80;1.35;;;3.40;99.90;;;;;;5076161;28;20036;-61
2023/03/05 05:06:15;;;;;;;2.00;0.88;;;3.40;99.90;;;;;;5071414;28;20150;-61
2023/03/05 05:08:40;;;;;;;3.15;0.90;;;3.40;99.90;;;;;;5064396;28;20408;-61
2023/03/05 05:11:07;;;;;;;2.88;1.30;;;3.40;99.90;;;;;;5082559;28;20043;-61
2023/03/05 05:13:33;;;;;;;2.90;0.77;;;3.30;99.90;;;;;;5069243;28;20047;-61
2023/03/05 05:15:59;;;;;;;1.17;0.70;;;3.40;99.90;;;;;;5071776;28;20037;-61
2023/03/05 05:18:25;;;;;;;7.00;1.40;;;3.30;99.90;;;;;;5074983;28;20086;-61
2023/03/05 05:20:51;;;;;;;2.60;0.90;;;3.30;99.90;;;;;;5082197;28;20496;-61
2023/03/05 05:23:17;;;;;;;4.57;1.33;;;3.30;99.90;;;;;;5091657;28;20028;-61
2023/03/05 05:25:43;;;;;;;2.83;1.00;;;3.30;99.90;;;;;;5086993;28;20482;-61
2023/03/05 05:28:10;;;;;;;1.42;1.10;;;3.30;99.90;;;;;;5080073;28;20040;-61
2023/03/05 05:30:36;;;;;;;2.30;1.00;;;3.30;99.90;;;;;;5084533;28;20044;-61
2023/03/05 05:33:01;;;;;;;1.75;1.02;;;3.30;99.90;;;;;;5078932;28;20410;-61
2023/03/05 05:35:27;;;;;;;2.55;1.00;;;3.30;99.90;;;;;;5085782;28;20028;-61
2023/03/05 05:37:53;;;;;;;2.15;0.95;;;3.30;99.90;;;;;;5086943;28;20078;-61
2023/03/05 05:40:18;;;;;;;3.53;1.30;;;3.20;99.90;;;;;;5079793;28;20446;-61
2023/03/05 05:42:44;;;;;;;4.65;1.27;;;3.20;99.90;;;;;;5086445;28;20139;-61
2023/03/05 05:45:10;;;;;;;4.57;1.20;;;3.30;99.90;;;;;;5077910;28;20066;-61
2023/03/05 05:47:36;;;;;;;4.15;1.10;;;3.20;99.90;;;;;;5077659;28;20059;-61
2023/03/05 05:50:03;;;;;;;2.78;1.00;;;3.30;99.90;;;;;;5084681;28;20033;-61
2023/03/05 05:52:29;;;;;;;2.85;1.02;;;3.30;99.90;;;;;;5070964;28;20033;-60
2023/03/05 05:54:55;;;;;;;2.00;0.93;;;3.30;99.90;;;;;;5086123;28;20105;-60
2023/03/05 05:57:20;;;;;;;4.80;1.30;;;3.30;99.90;;;;;;5080882;28;20024;-61
2023/03/05 05:59:46;;;;;;;2.67;1.13;;;3.30;99.90;;;;;;5085004;28;20552;-61
2023/03/05 06:02:12;;;;;;;2.85;1.40;;;3.30;99.90;;;;;;5091338;28;20068;-61
2023/03/05 06:04:38;;;;;;;4.25;1.30;;;3.30;99.90;;;;;;5079818;28;20402;-61
2023/03/05 06:07:04;;;;;;;4.18;1.20;;;3.30;99.90;;;;;;5091641;28;20114;-61
2023/03/05 06:09:30;;;;;;;2.58;1.00;;;3.30;99.90;;;;;;5084288;28;20457;-61
2023/03/05 06:11:55;;;;;;;4.85;1.00;;;3.30;99.90;;;;;;5084455;28;20502;-61
2023/03/05 06:14:21;;;;;;;2.45;1.10;;;3.30;99.90;;;;;;5079263;28;20028;-61
2023/03/05 06:16:46;;;;;;;2.58;1.40;;;3.30;99.90;;;;;;5092077;28;20397;-61
2023/03/05 06:19:14;;;;;;;5.90;1.20;;;3.30;99.90;;;;;;5084934;28;20029;-61
2023/03/05 06:21:40;;;;;;;2.05;1.33;;;3.30;99.90;;;;;;5089601;28;20059;-61
2023/03/05 06:24:06;;;;;;;3.05;1.38;;;3.30;99.90;;;;;;5084988;28;20419;-61
2023/03/05 06:26:32;;;;;;;2.88;1.60;;;3.20;99.90;;;;;;5064209;28;20051;-61
2023/03/05 06:28:58;;;;;;;5.28;1.13;;;3.30;99.90;;;;;;5066203;28;20518;-61
2023/03/05 06:31:26;;;;;;;2.13;1.17;;;3.20;99.90;;;;;;5091690;28;20136;-61
2023/03/05 06:33:56;;;;;;;3.75;1.20;;;3.20;99.90;;;;;;5068502;28;20043;-61
2023/03/05 06:36:23;;;;;;;2.85;1.40;;;3.20;99.90;;;;;;5076471;28;20048;-61
2023/03/05 06:38:50;;;;;;;4.80;1.50;;;3.20;99.90;;;;;;5067409;28;20146;-61
2023/03/05 06:41:20;;;;;;;1.85;1.20;;;3.20;99.90;;;;;;5086604;28;20070;-61
2023/03/05 06:43:47;;;;;;;3.67;1.40;;;3.30;99.90;;;;;;5090357;28;20040;-61
2023/03/05 06:46:19;;;;;;;3.72;1.30;;;3.30;99.90;;;;;;5088236;28;20117;-61
2023/03/05 06:48:45;;;;;;;5.72;1.58;;;3.30;99.90;;;;;;5090103;28;20526;-61
2023/03/05 06:51:16;;;;;;;4.03;1.30;;;3.30;99.90;;;;;;5090703;28;20037;-61
2023/03/05 06:53:42;;;;;;;4.87;1.43;;;3.30;99.90;;;;;;5087106;28;20035;-62
2023/03/05 06:56:08;;;;;;;5.65;1.55;;;3.40;99.90;;;;;;5088611;28;20055;-61
2023/03/05 06:58:34;;;;;;;2.90;1.50;;;3.40;99.90;;;;;;5087528;28;20036;-61
2023/03/05 07:01:00;;;;;;;5.55;1.50;;;3.40;99.90;;;;;;5084371;28;20048;-61
2023/03/05 07:03:26;;;;;;;4.38;1.48;;;3.40;99.90;;;;;;5086147;28;20074;-61
2023/03/05 07:05:51;;;;;;;2.75;1.45;;;3.40;99.90;;;;;;5091931;28;20031;-61
2023/03/05 07:08:17;;;;;;;5.00;1.60;;;3.50;99.90;;;;;;5084146;28;20040;-61
2023/03/05 07:10:43;;;;;;;3.38;1.63;;;3.50;99.90;;;;;;5081862;28;20125;-61
2023/03/05 07:13:09;;;;;;;3.22;1.27;;;3.50;99.90;;;;;;5070477;28;20486;-61
2023/03/05 07:15:39;;;;;;;4.63;1.98;;;3.50;99.90;;;;;;5066240;28;20043;-61
2023/03/05 07:18:05;;;;;;;5.78;1.58;;;3.50;99.90;;;;;;5064082;28;20123;-61
2023/03/05 07:20:34;;;;;;;5.85;1.80;;;3.50;99.90;;;;;;5088363;28;20086;-61
2023/03/05 07:23:00;;;;;;;6.13;1.67;;;3.60;99.90;;;;;;5087705;28;20090;-61
2023/03/05 07:25:25;;;;;;;6.65;1.58;;;3.60;99.90;;;;;;5084471;28;20040;-61
2023/03/05 07:27:51;;;;;;;3.85;1.40;;;3.60;99.90;;;;;;5088313;28;20043;-61
2023/03/05 07:30:17;;;;;;;5.40;1.88;;;3.60;99.90;;;;;;5092039;28;20280;-61
2023/03/05 07:32:43;;;;;;;4.75;1.60;;;3.60;99.90;;;;;;5082846;28;20043;-61
2023/03/05 07:35:08;;;;;;;4.35;1.58;;;3.70;99.90;;;;;;5083606;28;20020;-61
2023/03/05 07:37:34;;;;;;;5.72;1.40;;;3.70;99.90;;;;;;5088945;28;20032;-61
2023/03/05 07:40:00;;;;;;;6.20;1.52;;;3.70;99.90;;;;;;5086765;28;20046;-61
2023/03/05 07:42:25;;;;;;;4.97;1.38;;;3.70;99.90;;;;;;5090809;28;20093;-61
2023/03/05 07:44:51;;;;;;;4.82;1.50;;;3.80;99.90;;;;;;5082679;28;20043;-61
2023/03/05 07:47:17;;;;;;;5.63;1.50;;;3.80;99.90;;;;;;5091715;28;20047;-61
2023/03/05 07:49:42;;;;;;;3.60;1.58;;;3.80;99.90;;;;;;5092192;28;20393;-61
2023/03/05 07:52:08;;;;;;;6.65;1.33;;;3.80;99.90;;;;;;5082664;28;20119;-61
2023/03/05 07:54:37;;;;;;;6.65;1.48;;;3.90;99.90;;;;;;5092228;28;20406;-61
2023/03/05 07:57:04;;;;;;;4.50;1.30;;;3.90;99.90;;;;;;5091187;28;20413;-61
2023/03/05 07:59:30;;;;;;;5.65;1.35;;;4.00;99.90;;;;;;5083749;28;20036;-62
2023/03/05 08:01:56;;;;;;;4.75;1.40;;;4.00;99.90;;;;;;5090207;28;20044;-61
2023/03/05 08:04:21;;;;;;;4.18;1.30;;;4.10;99.90;;;;;;5065789;28;20037;-61
2023/03/05 08:06:48;;;;;;;4.07;1.17;;;4.10;99.90;;;;;;5082163;28;20080;-61
2023/03/05 08:09:15;;;;;;;5.43;1.38;;;4.20;99.90;;;;;;5080505;28;20040;-61
2023/03/05 08:11:41;;;;;;;3.50;1.30;;;4.20;99.90;;;;;;5085138;28;20035;-61
2023/03/05 08:14:07;;;;;;;6.07;1.30;;;4.20;99.90;;;;;;5069525;28;20036;-61
2023/03/05 08:16:33;;;;;;;5.85;1.83;;;4.20;99.90;;;;;;5086494;28;20043;-61
2023/03/05 08:18:59;;;;;;;4.32;1.20;;;4.20;99.90;;;;;;5088314;28;20032;-61
2023/03/05 08:21:28;;;;;;;5.60;1.67;;;4.20;99.90;;;;;;5087410;28;20048;-61
2023/03/05 08:23:55;;;;;;;4.28;1.58;;;4.30;99.90;;;;;;5070765;28;20410;-61
2023/03/05 08:26:22;;;;;;;8.85;1.95;;;4.30;99.90;;;;;;5092016;28;20054;-61
2023/03/05 08:28:49;;;;;;;3.00;1.30;;;4.40;99.90;;;;;;5074249;28;20479;-61
2023/03/05 08:31:16;;;;;;;5.22;1.27;;;4.50;99.90;;;;;;5072175;28;20032;-62
2023/03/05 08:33:42;;;;;;;5.28;1.40;;;4.50;99.90;;;;;;5072029;28;20044;-61
2023/03/05 08:36:09;;;;;;;5.55;1.45;;;4.60;99.90;;;;;;5072174;28;20051;-61
2023/03/05 08:38:35;;;;;;;6.75;1.67;;;4.60;99.90;;;;;;5082223;28;20036;-61
2023/03/05 08:41:01;;;;;;;6.32;1.75;;;4.70;99.90;;;;;;5072191;28;20100;-61
2023/03/05 08:43:27;;;;;;;3.75;1.33;;;4.70;99.90;;;;;;5084396;28;20045;-61
2023/03/05 08:45:52;;;;;;;6.78;1.50;;;4.70;99.90;;;;;;5080296;28;20041;-61
2023/03/05 08:48:19;;;;;;;4.10;1.30;;;4.90;99.90;;;;;;5072046;28;20039;-61
2023/03/05 08:50:45;;;;;;;4.30;1.50;;;4.90;99.90;;;;;;5053991;28;20040;-61
2023/03/05 08:53:10;;;;;;;6.88;1.30;;;5.00;99.90;;;;;;5058265;28;20024;-62
2023/03/05 08:55:36;;;;;;;3.80;1.20;;;5.10;99.90;;;;;;5092384;28;20036;-61
2023/03/05 08:58:03;;;;;;;5.03;1.27;;;5.10;99.90;;;;;;5072027;28;20067;-61
2023/03/05 09:00:29;;;;;;;2.58;1.20;;;5.20;99.90;;;;;;5071871;28;20029;-61
2023/03/05 09:02:54;;;;;;;6.75;1.33;;;5.30;99.90;;;;;;5053905;28;20036;-61
2023/03/05 09:05:20;;;;;;;3.30;1.52;;;5.30;99.90;;;;;;5071878;28;20039;-61
2023/03/05 09:07:46;;;;;;;6.13;1.55;;;5.40;99.90;;;;;;5075528;28;20039;-61
2023/03/05 09:10:13;;;;;;;8.23;1.45;;;5.50;99.90;;;;;;5091735;28;20526;-61
2023/03/05 09:12:42;;;;;;;6.90;1.40;;;5.60;99.90;;;;;;5074707;28;20445;-61
2023/03/05 09:15:09;;;;;;;5.57;1.40;;;5.60;99.90;;;;;;5054019;28;20040;-61
2023/03/05 09:17:35;;;;;;;7.97;1.25;;;5.60;99.90;;;;;;5053884;28;20061;-61
2023/03/05 09:20:02;;;;;;;6.30;1.70;;;5.70;99.90;;;;;;5071456;28;20509;-61
2023/03/05 09:22:28;;;;;;;5.93;1.27;;;5.70;99.90;;;;;;5080034;28;20036;-61
2023/03/05 09:24:54;;;;;;;7.95;1.63;;;5.80;99.90;;;;;;5091553;28;20504;-61
2023/03/05 09:27:20;;;;;;;4.35;1.38;;;5.80;99.90;;;;;;5093808;28;20035;-61
2023/03/05 09:29:45;;;;;;;8.75;1.30;;;5.80;99.90;;;;;;5077679;28;20040;-61
2023/03/05 09:32:11;;;;;;;4.47;1.17;;;5.90;99.90;;;;;;5095454;28;20121;-61
2023/03/05 09:34:37;;;;;;;6.20;1.27;;;6.00;99.90;;;;;;5077794;28;20098;-61
2023/03/05 09:37:03;;;;;;;4.82;1.38;;;6.00;99.90;;;;;;5091119;28;20035;-61
2023/03/05 09:39:29;;;;;;;6.30;1.27;;;6.00;99.90;;;;;;5088320;28;20405;-61
2023/03/05 09:42:03;;;;;;;5.43;1.40;;;6.10;99.90;;;;;;5075535;28;20037;-62
2023/03/05 09:44:41;;;;;;;7.28;1.27;;;6.10;99.90;;;;;;5075214;28;20040;-61
2023/03/05 09:47:38;;;;;;;6.65;1.30;;;6.10;99.90;;;;;;5091358;28;20037;-61
2023/03/05 09:50:10;;;;;;;9.40;1.77;;;6.20;99.90;;;;;;5057144;28;20044;-61
2023/03/05 09:53:01;;;;;;;7.15;1.25;;;6.20;99.90;;;;;;5087252;28;20486;-61
2023/03/05 09:55:34;;;;;;;6.00;1.40;;;6.30;99.90;;;;;;5083616;28;20444;-61
2023/03/05 09:58:10;;;;;;;7.13;1.13;;;6.40;99.90;;;;;;5075151;28;20082;-61
2023/03/05 10:00:46;;;;;;;5.45;1.08;;;6.50;99.90;;;;;;5057112;28;20066;-61
2023/03/05 10:03:23;;;;;;;6.68;1.55;;;6.60;99.90;;;;;;5075004;28;20119;-61
2023/03/05 10:06:15;;;;;;;5.03;0.93;;;6.60;99.90;;;;;;5075138;28;20075;-61
2023/03/05 10:09:10;;;;;;;5.43;1.30;;;6.60;99.90;;;;;;5068453;28;20040;-61
2023/03/05 10:11:35;;;;;;;5.05;1.00;;;6.80;99.90;;;;;;5094468;28;20039;-61
2023/03/05 10:14:02;;;;;;;6.50;1.38;;;6.90;99.90;;;;;;5090926;28;20044;-61
2023/03/05 10:16:57;;;;;;;7.10;1.10;;;6.90;99.90;;;;;;5095031;28;20032;-61
2023/03/05 10:19:37;;;;;;;5.88;1.13;;;6.90;99.90;;;;;;5073044;28;20040;-61
2023/03/05 10:22:18;;;;;;;5.60;1.17;;;6.90;99.90;;;;;;5093083;28;20080;-61
2023/03/05 10:25:05;;;;;;;6.28;1.05;;;6.80;99.90;;;;;;5093701;28;20048;-61
2023/03/05 10:27:55;;;;;;;5.25;1.02;;;6.80;99.90;;;;;;5074943;28;20075;-61
2023/03/05 10:30:48;;;;;;;6.93;1.10;;;7.00;99.90;;;;;;5074412;28;20032;-61
2023/03/05 10:33:32;;;;;;;4.45;0.93;;;7.10;99.90;;;;;;5074072;28;20086;-61
2023/03/05 10:36:10;;;;;;;9.45;2.60;;;7.30;99.90;;;;;;5075316;28;20441;-61
2023/03/05 10:39:08;;;;;;;7.65;2.22;;;7.30;99.90;;;;;;5091675;28;20119;-61
2023/03/05 10:41:52;;;;;;;4.93;0.88;;;7.20;99.90;;;;;;5109445;22;20040;-64
2023/03/05 10:44:26;;;;;;;6.13;0.90;;;7.20;99.90;;;;;;5087845;28;20070;-64
2023/03/05 10:46:57;;;;;;;2.88;0.90;;;7.10;99.90;;;;;;5093583;28;20585;-64
2023/03/05 10:49:31;;;;;;;2.13;1.10;;;7.20;99.90;;;;;;5075150;28;20036;-64
2023/03/05 10:52:02;;;;;;;5.43;0.73;;;7.20;99.90;;;;;;5085626;28;20072;-64
2023/03/05 10:54:30;;;;;;;5.00;0.75;;;7.20;99.90;;;;;;5094482;28;20089;-64
2023/03/05 10:57:20;;;;;;;4.68;1.00;;;7.10;99.90;;;;;;5094596;28;20040;-65
2023/03/05 10:59:57;;;;;;;5.07;1.63;;;7.20;99.90;;;;;;5094338;28;20136;-64
2023/03/05 11:02:23;;;;;;;5.03;0.98;;;7.10;99.90;;;;;;5055637;28;20036;-64
2023/03/05 11:04:51;;;;;;;4.32;0.90;;;7.00;99.90;;;;;;5075573;28;20125;-64
2023/03/05 11:07:16;;;;;;;5.78;0.80;;;7.00;99.90;;;;;;5094373;28;20048;-64
2023/03/05 11:10:02;;;;;;;4.00;0.77;;;7.00;99.90;;;;;;5094132;28;20115;-64
2023/03/05 11:12:36;;;;;;;3.47;0.77;;;7.10;99.90;;;;;;5093817;28;20032;-64
2023/03/05 11:15:08;;;;;;;4.43;0.88;;;7.10;99.90;;;;;;5093915;28;20044;-64
2023/03/05 11:17:47;;;;;;;5.88;0.88;;;7.10;99.90;;;;;;5080629;28;20486;-64
2023/03/05 11:20:28;;;;;;;3.88;0.88;;;7.10;99.90;;;;;;5081871;28;20028;-64
2023/03/05 11:23:14;;;;;;;2.87;0.87;;;7.20;99.90;;;;;;5073227;28;20120;-65
2023/03/05 11:25:56;;;;;;;7.15;1.30;;;7.20;99.90;;;;;;5068684;28;20319;-65
2023/03/05 11:28:37;;;;;;;3.05;0.77;;;7.20;99.90;;;;;;5085433;28;20109;-65
2023/03/05 11:31:23;;;;;;;4.20;0.85;;;6.90;99.90;;;;;;5088600;28;20040;-64
2023/03/05 11:34:05;;;;;;;3.88;0.70;;;6.40;99.90;;;;;;5085100;28;20044;-64
2023/03/05 11:36:56;;;;;;;1.92;0.90;;;6.00;99.90;;;;;;5093694;28;20133;-63
2023/03/05 11:39:24;;;;;;;2.75;0.88;;;5.70;99.90;;;;;;5085704;28;20044;-65
2023/03/05 11:42:03;;;;;;;4.80;1.05;;;5.50;99.90;;;;;;5080852;28;20040;-65
2023/03/05 11:44:37;;;;;;;4.57;1.00;;;5.40;99.90;;;;;;5067400;28;20450;-65
2023/03/05 11:47:25;;;;;;;2.55;0.80;;;5.40;99.90;;;;;;5077840;28;20032;-66
2023/03/05 11:49:59;;;;;;;2.05;0.70;;;5.40;99.90;;;;;;5084293;28;20044;-65
2023/03/05 11:52:31;;;;;;;2.80;0.77;;;5.50;99.90;;;;;;5092335;28;20065;-65
2023/03/05 11:55:09;;;;;;;2.95;0.88;;;5.60;99.90;;;;;;5093256;28;20048;-65
2023/03/05 11:57:44;;;;;;;3.20;1.65;;;5.60;99.90;;;;;;5083889;28;20564;-65
2023/03/05 12:00:17;;;;;;;1.55;0.65;;;5.70;99.90;;;;;;5070646;28;20043;-65
2023/03/05 12:02:44;;;;;;;2.38;1.00;;;5.70;99.90;;;;;;5082080;28;20085;-65
2023/03/05 12:05:14;;;;;;;3.65;1.50;;;5.70;99.90;;;;;;5085895;28;20047;-64
2023/03/05 12:07:45;;;;;;;2.92;0.82;;;5.80;99.90;;;;;;5093234;28;20040;-64
2023/03/05 12:10:16;;;;;;;3.95;0.77;;;5.80;99.90;;;;;;5092954;28;20073;-64
2023/03/05 12:12:48;;;;;;;1.70;0.90;;;6.00;99.90;;;;;;5084592;28;20457;-64
2023/03/05 12:15:16;;;;;;;1.33;0.73;;;6.00;99.90;;;;;;5053134;28;20150;-65
2023/03/05 12:18:19;;;;;;;3.65;0.65;;;6.20;99.90;;;;;;5075238;28;20040;-65
2023/03/05 12:21:00;;;;;;;1.52;0.82;;;6.30;99.90;;;;;;5072732;28;20050;-65
2023/03/05 12:23:26;;;;;;;;;;;6.40;99.90;;;;;;5072688;28;20051;-65
2023/03/05 12:25:55;;;;;;;3.70;0.82;;;6.50;99.90;;;;;;5071329;28;19920;-65
2023/03/05 12:28:30;;;;;;;1.25;0.70;;;6.60;99.90;;;;;;5059626;28;20044;-65
2023/03/05 12:30:59;;;;;;;4.57;1.00;;;6.70;99.90;;;;;;5082987;28;20177;-65
2023/03/05 12:33:29;;;;;;;8.38;1.30;;;6.80;99.90;;;;;;5092340;28;20039;-65
2023/03/05 12:36:21;;;;;;;4.18;1.00;;;6.80;99.90;;;;;;5092436;28;20516;-65
2023/03/05 12:38:51;;;;;;;3.13;1.25;;;6.80;99.90;;;;;;5074267;28;20082;-65
2023/03/05 12:41:23;;;;;;;1.52;0.70;;;6.90;99.90;;;;;;5083237;28;20068;-65
2023/03/05 12:44:07;;;;;;;5.75;1.08;;;6.90;99.90;;;;;;5070043;28;20049;-65
2023/03/05 12:46:42;;;;;;;4.95;1.10;;;7.10;99.90;;;;;;5071908;28;20051;-64
2023/03/05 12:49:21;;;;;;;4.93;1.27;;;7.10;99.90;;;;;;5054104;28;20094;-65
2023/03/05 12:51:49;;;;;;;2.60;0.88;;;7.20;99.90;;;;;;5071752;28;20514;-64
2023/03/05 12:54:23;;;;;;;5.65;1.25;;;7.30;99.90;;;;;;5071863;28;20036;-64
2023/03/05 12:56:51;;;;;;;4.18;1.23;;;7.40;99.90;;;;;;5051604;28;20565;-64
2023/03/05 12:59:20;;;;;;;2.97;1.05;;;7.50;99.90;;;;;;5071229;28;20123;-64
2023/03/05 13:01:53;;;;;;;5.13;1.05;;;7.60;99.90;;;;;;5053291;28;20052;-64
2023/03/05 13:04:25;;;;;;;4.22;1.00;;;7.70;99.90;;;;;;5071442;28;20120;-64
2023/03/05 13:06:59;;;;;;;4.72;1.00;;;7.70;99.90;;;;;;5071959;28;20040;-64
2023/03/05 13:09:30;;;;;;;3.55;0.95;;;7.70;99.90;;;;;;5071697;28;20103;-64